createdAt,value
2017-08-26T00:00:31.876Z,0
2017-08-26T00:01:32.180Z,0
2017-08-26T00:02:31.865Z,0
2017-08-26T00:03:32.178Z,0
2017-08-26T00:04:32.146Z,0
2017-08-26T00:05:32.191Z,0
2017-08-26T00:06:32.125Z,0
2017-08-26T00:07:32.162Z,0
2017-08-26T00:08:32.337Z,0
2017-08-26T00:09:32.115Z,0
2017-08-26T00:10:32.108Z,0
2017-08-26T00:11:32.114Z,0
2017-08-26T00:12:32.111Z,0
2017-08-26T00:13:32.284Z,0
2017-08-26T00:14:32.295Z,0
2017-08-26T00:15:31.755Z,0
2017-08-26T00:16:32.066Z,0
2017-08-26T00:17:31.729Z,0
2017-08-26T00:18:32.240Z,0
2017-08-26T00:19:32.219Z,0
2017-08-26T00:20:31.728Z,0
2017-08-26T00:21:32.013Z,0
2017-08-26T00:22:32.015Z,0
2017-08-26T00:23:31.692Z,0
2017-08-26T00:24:31.995Z,0
2017-08-26T00:25:31.984Z,0
2017-08-26T00:26:31.989Z,0
2017-08-26T00:27:31.974Z,0
2017-08-26T00:28:31.963Z,0
2017-08-26T00:29:31.942Z,0
2017-08-26T00:30:31.959Z,0
2017-08-26T00:31:31.961Z,0
2017-08-26T00:32:31.943Z,0
2017-08-26T00:33:31.613Z,0
2017-08-26T00:34:31.926Z,0
2017-08-26T00:35:31.907Z,0
2017-08-26T00:36:31.603Z,0
2017-08-26T00:37:31.574Z,0
2017-08-26T00:38:31.577Z,0
2017-08-26T00:39:31.868Z,0
2017-08-26T00:40:31.877Z,0
2017-08-26T00:41:31.551Z,0
2017-08-26T00:42:31.569Z,0
2017-08-26T00:43:31.531Z,0
2017-08-26T00:44:31.524Z,0
2017-08-26T00:45:31.511Z,0
2017-08-26T00:46:31.835Z,0
2017-08-26T00:47:45.135Z,0
2017-08-26T00:48:31.805Z,0
2017-08-26T00:49:31.493Z,0
2017-08-26T00:50:31.787Z,0
2017-08-26T00:51:32.007Z,0
2017-08-26T00:52:32.010Z,0
2017-08-26T00:53:31.458Z,0
2017-08-26T00:54:31.755Z,0
2017-08-26T00:55:31.733Z,0
2017-08-26T00:56:31.732Z,0
2017-08-26T00:57:31.735Z,0
2017-08-26T00:58:31.751Z,0
2017-08-26T00:59:31.736Z,0
2017-08-26T01:00:31.399Z,0
2017-08-26T01:01:31.721Z,0
2017-08-26T01:02:31.703Z,0
2017-08-26T01:03:31.701Z,0
2017-08-26T01:04:31.683Z,0
2017-08-26T01:05:31.687Z,0
2017-08-26T01:06:31.662Z,0
2017-08-26T01:07:31.654Z,0
2017-08-26T01:08:31.651Z,0
2017-08-26T01:09:31.639Z,0
2017-08-26T01:10:31.644Z,0
2017-08-26T01:11:31.640Z,0
2017-08-26T01:12:31.621Z,0
2017-08-26T01:13:31.607Z,0
2017-08-26T01:14:31.591Z,0
2017-08-26T01:15:31.590Z,0
2017-08-26T01:16:31.578Z,0
2017-08-26T01:17:31.565Z,0
2017-08-26T01:18:31.560Z,0
2017-08-26T01:19:31.249Z,0
2017-08-26T01:20:31.539Z,0
2017-08-26T01:21:31.545Z,0
2017-08-26T01:22:31.534Z,0
2017-08-26T01:23:31.729Z,0
2017-08-26T01:24:31.510Z,0
2017-08-26T01:25:31.507Z,0
2017-08-26T01:26:31.499Z,0
2017-08-26T01:27:31.497Z,0
2017-08-26T01:28:31.474Z,0
2017-08-26T01:29:31.356Z,0
2017-08-26T01:30:31.457Z,0
2017-08-26T01:31:31.147Z,0
2017-08-26T01:32:31.129Z,0
2017-08-26T01:33:31.432Z,0
2017-08-26T01:34:31.640Z,0
2017-08-26T01:35:31.402Z,0
2017-08-26T01:36:31.412Z,0
2017-08-26T01:37:31.401Z,0
2017-08-26T01:38:31.395Z,0
2017-08-26T01:39:31.374Z,0
2017-08-26T01:40:31.054Z,0
2017-08-26T01:41:31.340Z,0
2017-08-26T01:42:31.340Z,0
2017-08-26T01:43:31.347Z,0
2017-08-26T01:44:31.339Z,0
2017-08-26T01:45:31.321Z,0
2017-08-26T01:46:31.318Z,0
2017-08-26T01:47:31.300Z,0
2017-08-26T01:48:31.303Z,0
2017-08-26T01:49:30.965Z,0
2017-08-26T01:50:30.957Z,0
2017-08-26T01:51:31.272Z,0
2017-08-26T01:52:30.637Z,0
2017-08-26T01:53:30.927Z,0
2017-08-26T01:54:30.928Z,0
2017-08-26T01:55:30.915Z,0
2017-08-26T01:56:30.903Z,0
2017-08-26T01:57:30.812Z,0
2017-08-26T01:58:30.576Z,0
2017-08-26T01:59:30.879Z,0
2017-08-26T02:00:30.249Z,0
2017-08-26T02:01:31.178Z,0
2017-08-26T02:02:31.160Z,0
2017-08-26T02:03:30.536Z,0
2017-08-26T02:04:31.145Z,0
2017-08-26T02:05:30.833Z,0
2017-08-26T02:06:30.696Z,0
2017-08-26T02:07:30.803Z,0
2017-08-26T02:08:30.797Z,0
2017-08-26T02:09:31.091Z,0
2017-08-26T02:10:31.273Z,0
2017-08-26T02:11:30.970Z,0
2017-08-26T02:12:30.756Z,0
2017-08-26T02:13:31.044Z,0
2017-08-26T02:14:31.053Z,0
2017-08-26T02:15:31.041Z,0
2017-08-26T02:16:31.010Z,0
2017-08-26T02:17:30.696Z,0
2017-08-26T02:18:31.006Z,0
2017-08-26T02:19:30.984Z,0
2017-08-26T02:20:30.987Z,0
2017-08-26T02:21:30.968Z,0
2017-08-26T02:22:30.981Z,0
2017-08-26T02:23:30.959Z,0
2017-08-26T02:24:30.938Z,0
2017-08-26T02:25:30.929Z,0
2017-08-26T02:26:30.921Z,0
2017-08-26T02:27:30.920Z,0
2017-08-26T02:28:30.944Z,0
2017-08-26T02:29:30.902Z,0
2017-08-26T02:30:30.596Z,0
2017-08-26T02:31:30.574Z,0
2017-08-26T02:32:30.556Z,0
2017-08-26T02:33:30.866Z,0
2017-08-26T02:34:30.846Z,0
2017-08-26T02:35:30.845Z,0
2017-08-26T02:36:30.836Z,0
2017-08-26T02:37:30.844Z,0
2017-08-26T02:38:30.827Z,0
2017-08-26T02:39:30.808Z,0
2017-08-26T02:40:30.843Z,0
2017-08-26T02:41:30.495Z,0
2017-08-26T02:42:30.998Z,0
2017-08-26T02:43:30.793Z,0
2017-08-26T02:44:30.755Z,0
2017-08-26T02:45:30.755Z,0
2017-08-26T02:46:30.743Z,0
2017-08-26T02:47:30.467Z,0
2017-08-26T02:48:30.721Z,0
2017-08-26T02:49:30.743Z,0
2017-08-26T02:50:30.733Z,0
2017-08-26T02:51:30.404Z,0
2017-08-26T02:52:30.698Z,0
2017-08-26T02:53:30.681Z,0
2017-08-26T02:54:30.671Z,0
2017-08-26T02:55:30.662Z,0
2017-08-26T02:56:30.665Z,0
2017-08-26T02:57:30.648Z,0
2017-08-26T02:58:30.325Z,0
2017-08-26T02:59:30.018Z,0
2017-08-26T03:00:30.299Z,0
2017-08-26T03:01:30.636Z,0
2017-08-26T03:02:30.623Z,0
2017-08-26T03:03:30.606Z,0
2017-08-26T03:04:30.591Z,0
2017-08-26T03:05:30.275Z,0
2017-08-26T03:06:30.593Z,0
2017-08-26T03:07:30.247Z,0
2017-08-26T03:08:30.563Z,0
2017-08-26T03:09:30.548Z,0
2017-08-26T03:10:30.561Z,0
2017-08-26T03:11:30.545Z,0
2017-08-26T03:12:30.521Z,0
2017-08-26T03:13:30.516Z,0
2017-08-26T03:14:30.714Z,0
2017-08-26T03:15:30.494Z,0
2017-08-26T03:16:30.171Z,0
2017-08-26T03:17:30.483Z,0
2017-08-26T03:18:30.483Z,0
2017-08-26T03:19:30.475Z,0
2017-08-26T03:20:30.658Z,0
2017-08-26T03:21:30.143Z,0
2017-08-26T03:22:30.447Z,0
2017-08-26T03:23:30.450Z,0
2017-08-26T03:24:30.420Z,0
2017-08-26T03:25:30.432Z,0
2017-08-26T03:26:30.420Z,0
2017-08-26T03:27:30.410Z,0
2017-08-26T03:28:30.407Z,0
2017-08-26T03:29:30.394Z,0
2017-08-26T03:30:30.401Z,0
2017-08-26T03:31:30.378Z,0
2017-08-26T03:32:30.360Z,0
2017-08-26T03:33:30.350Z,0
2017-08-26T03:34:30.352Z,0
2017-08-26T03:35:30.332Z,0
2017-08-26T03:36:30.339Z,0
2017-08-26T03:37:30.024Z,0
2017-08-26T03:38:30.015Z,0
2017-08-26T03:39:30.002Z,0
2017-08-26T03:40:30.322Z,0
2017-08-26T03:41:30.000Z,0
2017-08-26T03:42:30.286Z,0
2017-08-26T03:43:30.281Z,0
2017-08-26T03:44:29.987Z,0
2017-08-26T03:45:30.258Z,0
2017-08-26T03:46:30.254Z,0
2017-08-26T03:47:30.232Z,0
2017-08-26T03:48:30.230Z,0
2017-08-26T03:49:30.238Z,0
2017-08-26T03:50:29.606Z,0
2017-08-26T03:51:30.214Z,0
2017-08-26T03:52:30.218Z,0
2017-08-26T03:53:30.193Z,0
2017-08-26T03:54:30.180Z,0
2017-08-26T03:55:30.176Z,0
2017-08-26T03:56:29.864Z,0
2017-08-26T03:57:30.157Z,0
2017-08-26T03:58:30.162Z,0
2017-08-26T03:59:30.143Z,0
2017-08-26T04:00:30.150Z,0
2017-08-26T04:01:30.144Z,0
2017-08-26T04:02:30.119Z,0
2017-08-26T04:03:30.117Z,0
2017-08-26T04:04:30.103Z,0
2017-08-26T04:05:30.092Z,0
2017-08-26T04:06:30.082Z,0
2017-08-26T04:07:30.076Z,0
2017-08-26T04:08:30.071Z,0
2017-08-26T04:09:30.080Z,0
2017-08-26T04:10:29.745Z,0
2017-08-26T04:11:29.738Z,0
2017-08-26T04:12:30.042Z,5
2017-08-26T04:13:30.028Z,5
2017-08-26T04:14:30.027Z,5
2017-08-26T04:15:30.032Z,5
2017-08-26T04:16:29.997Z,5
2017-08-26T04:17:30.018Z,5
2017-08-26T04:18:29.682Z,5
2017-08-26T04:19:29.369Z,5
2017-08-26T04:20:30.004Z,5
2017-08-26T04:21:29.676Z,10
2017-08-26T04:22:29.956Z,10
2017-08-26T04:23:29.945Z,10
2017-08-26T04:24:29.637Z,10
2017-08-26T04:25:29.615Z,10
2017-08-26T04:26:29.936Z,15
2017-08-26T04:27:29.916Z,15
2017-08-26T04:28:29.913Z,15
2017-08-26T04:29:29.593Z,20
2017-08-26T04:30:29.585Z,20
2017-08-26T04:31:29.594Z,25
2017-08-26T04:32:29.561Z,25
2017-08-26T04:33:29.861Z,30
2017-08-26T04:34:29.543Z,30
2017-08-26T04:35:29.553Z,35
2017-08-26T04:36:29.849Z,40
2017-08-26T04:37:29.531Z,45
2017-08-26T04:38:29.514Z,45
2017-08-26T04:39:29.514Z,50
2017-08-26T04:40:29.805Z,55
2017-08-26T04:41:29.808Z,60
2017-08-26T04:42:29.471Z,65
2017-08-26T04:43:29.772Z,70
2017-08-26T04:44:29.784Z,75
2017-08-26T04:45:29.471Z,80
2017-08-26T04:46:29.766Z,85
2017-08-26T04:47:29.744Z,90
2017-08-26T04:48:29.740Z,95
2017-08-26T04:49:29.737Z,100
2017-08-26T04:50:29.741Z,100
2017-08-26T04:51:29.722Z,105
2017-08-26T04:52:29.721Z,110
2017-08-26T04:53:29.712Z,115
2017-08-26T04:54:29.380Z,120
2017-08-26T04:55:29.674Z,125
2017-08-26T04:56:29.685Z,130
2017-08-26T04:57:28.727Z,140
2017-08-26T04:58:29.659Z,145
2017-08-26T04:59:29.650Z,150
2017-08-26T05:00:29.647Z,160
2017-08-26T05:01:29.630Z,165
2017-08-26T05:02:29.324Z,175
2017-08-26T05:03:29.595Z,180
2017-08-26T05:04:29.618Z,185
2017-08-26T05:05:29.580Z,195
2017-08-26T05:06:29.595Z,195
2017-08-26T05:07:29.592Z,210
2017-08-26T05:08:29.577Z,235
2017-08-26T05:09:29.563Z,230
2017-08-26T05:10:29.572Z,225
2017-08-26T05:11:29.537Z,225
2017-08-26T05:12:29.554Z,230
2017-08-26T05:13:29.524Z,265
2017-08-26T05:14:29.542Z,300
2017-08-26T05:15:29.539Z,325
2017-08-26T05:16:29.499Z,340
2017-08-26T05:17:29.518Z,355
2017-08-26T05:18:29.483Z,365
2017-08-26T05:19:29.491Z,380
2017-08-26T05:20:29.470Z,400
2017-08-26T05:21:29.471Z,410
2017-08-26T05:22:29.442Z,430
2017-08-26T05:23:29.447Z,440
2017-08-26T05:24:29.427Z,445
2017-08-26T05:25:29.428Z,460
2017-08-26T05:26:29.415Z,475
2017-08-26T05:27:29.412Z,460
2017-08-26T05:28:29.411Z,460
2017-08-26T05:29:29.404Z,470
2017-08-26T05:30:29.382Z,485
2017-08-26T05:31:29.380Z,510
2017-08-26T05:32:29.066Z,510
2017-08-26T05:33:29.081Z,515
2017-08-26T05:34:29.055Z,520
2017-08-26T05:35:29.062Z,515
2017-08-26T05:36:29.340Z,510
2017-08-26T05:37:29.340Z,510
2017-08-26T05:38:29.023Z,515
2017-08-26T05:39:28.998Z,515
2017-08-26T05:40:28.989Z,525
2017-08-26T05:41:29.291Z,565
2017-08-26T05:42:28.987Z,610
2017-08-26T05:43:28.673Z,645
2017-08-26T05:44:29.288Z,655
2017-08-26T05:45:29.286Z,655
2017-08-26T05:46:29.258Z,645
2017-08-26T05:47:28.958Z,640
2017-08-26T05:48:28.948Z,650
2017-08-26T05:49:28.614Z,645
2017-08-26T05:50:29.237Z,675
2017-08-26T05:51:29.234Z,685
2017-08-26T05:52:29.220Z,725
2017-08-26T05:53:29.200Z,775
2017-08-26T05:54:28.888Z,795
2017-08-26T05:55:29.210Z,765
2017-08-26T05:56:29.179Z,770
2017-08-26T05:57:29.207Z,780
2017-08-26T05:58:29.178Z,795
2017-08-26T05:59:29.186Z,795
2017-08-26T06:00:29.147Z,780
2017-08-26T06:01:28.835Z,820
2017-08-26T06:02:29.136Z,820
2017-08-26T06:03:29.172Z,845
2017-08-26T06:04:29.132Z,905
2017-08-26T06:05:29.101Z,890
2017-08-26T06:06:29.118Z,850
2017-08-26T06:07:28.789Z,880
2017-08-26T06:08:28.764Z,905
2017-08-26T06:09:28.800Z,905
2017-08-26T06:10:28.766Z,950
2017-08-26T06:11:29.069Z,955
2017-08-26T06:12:29.058Z,980
2017-08-26T06:13:29.063Z,965
2017-08-26T06:14:29.043Z,950
2017-08-26T06:15:29.070Z,985
2017-08-26T06:16:29.016Z,1035
2017-08-26T06:17:29.015Z,1025
2017-08-26T06:18:29.021Z,1035
2017-08-26T06:19:28.993Z,1075
2017-08-26T06:20:29.007Z,1055
2017-08-26T06:21:28.982Z,1010
2017-08-26T06:22:28.967Z,1035
2017-08-26T06:23:28.347Z,1090
2017-08-26T06:24:28.965Z,1060
2017-08-26T06:25:28.968Z,1050
2017-08-26T06:26:28.945Z,1050
2017-08-26T06:27:28.949Z,1165
2017-08-26T06:28:28.925Z,1195
2017-08-26T06:29:28.623Z,1105
2017-08-26T06:30:28.922Z,1045
2017-08-26T06:31:28.911Z,1120
2017-08-26T06:32:28.906Z,1150
2017-08-26T06:33:28.891Z,1100
2017-08-26T06:34:28.892Z,1105
2017-08-26T06:35:28.876Z,1140
2017-08-26T06:36:28.559Z,1185
2017-08-26T06:37:28.861Z,1235
2017-08-26T06:38:28.854Z,1265
2017-08-26T06:39:28.852Z,1270
2017-08-26T06:40:28.528Z,1255
2017-08-26T06:41:28.845Z,1305
2017-08-26T06:42:28.837Z,1435
2017-08-26T06:43:28.825Z,1475
2017-08-26T06:44:28.494Z,1470
2017-08-26T06:45:28.816Z,1375
2017-08-26T06:46:28.792Z,1420
2017-08-26T06:47:28.790Z,1495
2017-08-26T06:48:28.467Z,1565
2017-08-26T06:49:28.463Z,1515
2017-08-26T06:50:28.469Z,1550
2017-08-26T06:51:28.774Z,1740
2017-08-26T06:52:28.763Z,1650
2017-08-26T06:53:28.755Z,1580
2017-08-26T06:54:28.745Z,1595
2017-08-26T06:55:28.740Z,1580
2017-08-26T06:56:28.731Z,1665
2017-08-26T06:57:28.728Z,1795
2017-08-26T06:58:28.412Z,1740
2017-08-26T06:59:28.089Z,1725
2017-08-26T07:00:28.089Z,1755
2017-08-26T07:01:28.679Z,1845
2017-08-26T07:02:28.066Z,1905
2017-08-26T07:03:28.687Z,1885
2017-08-26T07:04:28.673Z,1770
2017-08-26T07:05:28.667Z,1610
2017-08-26T07:06:28.661Z,1870
2017-08-26T07:07:28.333Z,1800
2017-08-26T07:08:28.340Z,1780
2017-08-26T07:09:28.655Z,1245
2017-08-26T07:10:28.642Z,1320
2017-08-26T07:11:28.635Z,1890
2017-08-26T07:12:28.010Z,2050
2017-08-26T07:13:27.697Z,2100
2017-08-26T07:14:28.614Z,2015
2017-08-26T07:15:28.302Z,2035
2017-08-26T07:16:28.296Z,2140
2017-08-26T07:17:28.629Z,2190
2017-08-26T07:18:28.612Z,2215
2017-08-26T07:19:28.589Z,1240
2017-08-26T07:20:28.263Z,2195
2017-08-26T07:21:28.572Z,2460
2017-08-26T07:22:28.277Z,2070
2017-08-26T07:23:28.581Z,2180
2017-08-26T07:24:28.247Z,2095
2017-08-26T07:25:27.940Z,1080
2017-08-26T07:26:28.242Z,825
2017-08-26T07:27:28.243Z,795
2017-08-26T07:28:27.922Z,740
2017-08-26T07:29:28.534Z,685
2017-08-26T07:30:28.535Z,690
2017-08-26T07:31:28.527Z,770
2017-08-26T07:32:28.533Z,955
2017-08-26T07:33:28.515Z,2160
2017-08-26T07:34:28.531Z,2100
2017-08-26T07:35:28.499Z,2205
2017-08-26T07:36:28.486Z,2080
2017-08-26T07:37:28.506Z,2085
2017-08-26T07:38:28.496Z,2000
2017-08-26T07:39:28.491Z,2025
2017-08-26T07:40:28.480Z,1880
2017-08-26T07:41:28.459Z,1525
2017-08-26T07:42:28.144Z,1530
2017-08-26T07:43:28.455Z,1905
2017-08-26T07:44:28.451Z,2255
2017-08-26T07:45:28.460Z,2075
2017-08-26T07:46:28.462Z,1925
2017-08-26T07:47:28.424Z,2185
2017-08-26T07:48:28.419Z,2250
2017-08-26T07:49:28.416Z,2115
2017-08-26T07:50:28.430Z,2135
2017-08-26T07:51:28.393Z,2320
2017-08-26T07:52:28.088Z,2305
2017-08-26T07:53:28.100Z,2375
2017-08-26T07:54:28.396Z,2155
2017-08-26T07:55:28.379Z,2215
2017-08-26T07:56:28.406Z,2520
2017-08-26T07:57:28.391Z,2195
2017-08-26T07:58:28.372Z,2075
2017-08-26T07:59:28.368Z,2520
2017-08-26T08:00:28.377Z,2240
2017-08-26T08:01:28.049Z,2645
2017-08-26T08:02:28.365Z,3455
2017-08-26T08:03:28.400Z,3265
2017-08-26T08:04:28.340Z,2395
2017-08-26T08:05:28.021Z,2060
2017-08-26T08:06:28.341Z,1915
2017-08-26T08:07:28.341Z,1820
2017-08-26T08:08:28.013Z,1845
2017-08-26T08:09:28.324Z,2200
2017-08-26T08:10:28.326Z,2535
2017-08-26T08:11:28.328Z,2585
2017-08-26T08:12:28.325Z,3045
2017-08-26T08:13:28.292Z,3080
2017-08-26T08:14:27.976Z,2735
2017-08-26T08:15:28.299Z,2440
2017-08-26T08:16:28.295Z,2635
2017-08-26T08:17:28.285Z,2965
2017-08-26T08:18:27.964Z,2795
2017-08-26T08:19:28.264Z,2470
2017-08-26T08:20:28.266Z,2195
2017-08-26T08:21:28.287Z,2485
2017-08-26T08:22:27.949Z,2235
2017-08-26T08:23:27.934Z,2005
2017-08-26T08:24:27.951Z,1870
2017-08-26T08:25:27.937Z,2205
2017-08-26T08:26:27.939Z,1835
2017-08-26T08:27:27.930Z,1865
2017-08-26T08:28:27.920Z,3575
2017-08-26T08:29:28.217Z,3910
2017-08-26T08:30:27.594Z,3970
2017-08-26T08:31:27.922Z,3960
2017-08-26T08:32:27.885Z,3045
2017-08-26T08:33:27.579Z,4095
2017-08-26T08:34:27.887Z,4225
2017-08-26T08:35:28.189Z,3080
2017-08-26T08:36:28.179Z,3670
2017-08-26T08:37:28.194Z,4035
2017-08-26T08:38:28.170Z,3925
2017-08-26T08:39:28.174Z,2505
2017-08-26T08:40:28.165Z,3655
2017-08-26T08:41:27.851Z,3920
2017-08-26T08:42:28.161Z,2710
2017-08-26T08:43:28.168Z,2420
2017-08-26T08:44:28.131Z,2570
2017-08-26T08:45:28.145Z,4245
2017-08-26T08:46:28.145Z,2170
2017-08-26T08:47:28.146Z,2520
2017-08-26T08:48:28.127Z,2905
2017-08-26T08:49:27.814Z,3000
2017-08-26T08:50:28.110Z,3645
2017-08-26T08:51:28.113Z,2430
2017-08-26T08:52:28.114Z,2515
2017-08-26T08:53:28.106Z,2440
2017-08-26T08:54:28.095Z,2160
2017-08-26T08:55:27.780Z,2145
2017-08-26T08:56:27.768Z,1940
2017-08-26T08:57:28.103Z,1875
2017-08-26T08:58:28.086Z,1845
2017-08-26T08:59:28.084Z,1835
2017-08-26T09:00:28.066Z,1830
2017-08-26T09:01:28.072Z,1700
2017-08-26T09:02:28.045Z,1625
2017-08-26T09:03:28.045Z,1565
2017-08-26T09:04:28.030Z,1510
2017-08-26T09:05:28.047Z,1495
2017-08-26T09:06:27.723Z,1495
2017-08-26T09:07:28.030Z,1515
2017-08-26T09:08:28.020Z,1540
2017-08-26T09:09:28.015Z,1560
2017-08-26T09:10:27.999Z,1575
2017-08-26T09:11:28.010Z,1595
2017-08-26T09:12:27.988Z,1605
2017-08-26T09:13:27.981Z,1600
2017-08-26T09:14:27.973Z,1535
2017-08-26T09:15:27.985Z,1400
2017-08-26T09:16:27.962Z,1275
2017-08-26T09:17:27.965Z,1210
2017-08-26T09:18:27.649Z,1205
2017-08-26T09:19:27.333Z,1250
2017-08-26T09:20:27.949Z,1315
2017-08-26T09:21:27.946Z,1375
2017-08-26T09:22:27.950Z,1425
2017-08-26T09:23:27.938Z,1465
2017-08-26T09:24:27.934Z,1495
2017-08-26T09:25:27.618Z,1560
2017-08-26T09:26:27.302Z,1550
2017-08-26T09:27:27.920Z,1510
2017-08-26T09:28:27.592Z,1505
2017-08-26T09:29:27.907Z,1535
2017-08-26T09:30:27.571Z,1565
2017-08-26T09:31:27.577Z,1590
2017-08-26T09:32:27.572Z,1610
2017-08-26T09:33:27.874Z,1635
2017-08-26T09:34:27.878Z,1665
2017-08-26T09:35:27.872Z,1710
2017-08-26T09:36:27.853Z,1700
2017-08-26T09:37:27.850Z,1700
2017-08-26T09:38:27.855Z,1650
2017-08-26T09:39:27.535Z,1680
2017-08-26T09:40:27.520Z,1700
2017-08-26T09:41:27.519Z,1760
2017-08-26T09:42:27.832Z,1825
2017-08-26T09:43:27.493Z,1880
2017-08-26T09:44:27.496Z,2010
2017-08-26T09:45:27.813Z,3530
2017-08-26T09:46:27.806Z,2185
2017-08-26T09:47:27.480Z,2885
2017-08-26T09:48:27.471Z,2115
2017-08-26T09:49:27.473Z,1945
2017-08-26T09:50:27.783Z,1975
2017-08-26T09:51:27.465Z,2000
2017-08-26T09:52:27.452Z,2940
2017-08-26T09:53:27.454Z,2225
2017-08-26T09:54:27.758Z,2350
2017-08-26T09:55:27.741Z,2535
2017-08-26T09:56:27.759Z,2455
2017-08-26T09:57:27.752Z,2765
2017-08-26T09:58:27.776Z,4285
2017-08-26T09:59:27.725Z,3675
2017-08-26T10:00:27.737Z,2490
2017-08-26T10:01:27.412Z,1960
2017-08-26T10:02:27.721Z,1890
2017-08-26T10:03:27.407Z,1835
2017-08-26T10:04:27.694Z,1770
2017-08-26T10:05:27.699Z,1705
2017-08-26T10:06:27.706Z,1645
2017-08-26T10:07:27.379Z,1640
2017-08-26T10:08:27.692Z,1600
2017-08-26T10:09:27.382Z,1565
2017-08-26T10:10:27.670Z,1555
2017-08-26T10:11:27.379Z,1570
2017-08-26T10:12:27.683Z,1615
2017-08-26T10:13:27.355Z,1685
2017-08-26T10:14:27.365Z,1840
2017-08-26T10:15:27.657Z,1665
2017-08-26T10:16:27.679Z,1575
2017-08-26T10:17:27.669Z,1570
2017-08-26T10:18:27.356Z,1570
2017-08-26T10:19:27.329Z,1520
2017-08-26T10:20:27.655Z,1425
2017-08-26T10:21:27.647Z,1330
2017-08-26T10:22:27.628Z,1255
2017-08-26T10:23:27.312Z,1200
2017-08-26T10:24:27.621Z,1175
2017-08-26T10:25:27.642Z,1180
2017-08-26T10:26:27.294Z,1220
2017-08-26T10:27:27.622Z,1270
2017-08-26T10:28:27.613Z,1320
2017-08-26T10:29:27.598Z,1325
2017-08-26T10:30:27.288Z,1325
2017-08-26T10:31:27.591Z,1325
2017-08-26T10:32:27.274Z,1335
2017-08-26T10:33:27.589Z,1335
2017-08-26T10:34:27.587Z,1360
2017-08-26T10:35:27.590Z,1360
2017-08-26T10:36:27.575Z,1370
2017-08-26T10:37:27.247Z,1380
2017-08-26T10:38:27.565Z,1380
2017-08-26T10:39:27.241Z,1390
2017-08-26T10:40:27.553Z,1425
2017-08-26T10:41:27.235Z,1440
2017-08-26T10:42:27.235Z,1470
2017-08-26T10:43:27.546Z,1490
2017-08-26T10:44:26.917Z,1505
2017-08-26T10:45:27.522Z,1505
2017-08-26T10:46:27.527Z,1500
2017-08-26T10:47:27.499Z,1495
2017-08-26T10:48:27.515Z,1515
2017-08-26T10:49:27.509Z,1530
2017-08-26T10:50:27.493Z,1530
2017-08-26T10:51:27.181Z,1480
2017-08-26T10:52:27.178Z,1405
2017-08-26T10:53:27.494Z,1325
2017-08-26T10:54:27.495Z,1260
2017-08-26T10:55:27.169Z,1205
2017-08-26T10:56:27.471Z,1185
2017-08-26T10:57:27.466Z,1215
2017-08-26T10:58:27.465Z,1255
2017-08-26T10:59:27.452Z,1305
2017-08-26T11:00:27.140Z,1355
2017-08-26T11:01:27.156Z,1415
2017-08-26T11:02:27.144Z,1485
2017-08-26T11:03:27.432Z,1555
2017-08-26T11:04:27.128Z,1625
2017-08-26T11:05:27.123Z,1700
2017-08-26T11:06:26.800Z,1775
2017-08-26T11:07:27.110Z,1885
2017-08-26T11:08:26.478Z,1990
2017-08-26T11:09:27.093Z,2080
2017-08-26T11:10:27.097Z,2355
2017-08-26T11:11:27.094Z,3010
2017-08-26T11:12:27.399Z,2840
2017-08-26T11:13:27.085Z,3235
2017-08-26T11:14:27.074Z,3975
2017-08-26T11:15:27.065Z,4500
2017-08-26T11:16:27.380Z,4300
2017-08-26T11:17:27.070Z,3475
2017-08-26T11:18:27.369Z,3985
2017-08-26T11:19:27.363Z,5230
2017-08-26T11:20:27.362Z,2455
2017-08-26T11:21:27.356Z,3505
2017-08-26T11:22:27.356Z,4085
2017-08-26T11:23:27.349Z,3465
2017-08-26T11:24:27.028Z,4345
2017-08-26T11:25:27.340Z,3000
2017-08-26T11:26:27.026Z,2890
2017-08-26T11:27:27.332Z,4205
2017-08-26T11:28:27.339Z,2710
2017-08-26T11:29:27.347Z,2265
2017-08-26T11:30:27.324Z,2330
2017-08-26T11:31:27.001Z,2075
2017-08-26T11:32:27.001Z,2215
2017-08-26T11:33:27.310Z,2610
2017-08-26T11:34:27.309Z,3960
2017-08-26T11:35:27.314Z,4025
2017-08-26T11:36:27.304Z,3650
2017-08-26T11:37:27.299Z,3345
2017-08-26T11:38:26.978Z,3210
2017-08-26T11:39:26.973Z,3300
2017-08-26T11:40:27.294Z,3130
2017-08-26T11:41:27.280Z,4060
2017-08-26T11:42:27.289Z,3330
2017-08-26T11:43:26.972Z,3600
2017-08-26T11:44:26.973Z,3900
2017-08-26T11:45:26.970Z,3810
2017-08-26T11:46:27.274Z,2930
2017-08-26T11:47:27.274Z,3485
2017-08-26T11:48:26.956Z,3570
2017-08-26T11:49:27.255Z,3505
2017-08-26T11:50:27.297Z,4020
2017-08-26T11:51:26.952Z,4070
2017-08-26T11:52:27.254Z,3815
2017-08-26T11:53:27.252Z,3740
2017-08-26T11:54:27.252Z,3935
2017-08-26T11:55:26.946Z,3785
2017-08-26T11:56:27.245Z,3310
2017-08-26T11:57:26.937Z,3720
2017-08-26T11:58:27.266Z,3395
2017-08-26T11:59:26.931Z,3535
2017-08-26T12:00:26.612Z,3565
2017-08-26T12:01:27.224Z,3340
2017-08-26T12:02:27.238Z,3015
2017-08-26T12:03:26.604Z,3260
2017-08-26T12:04:26.915Z,2975
2017-08-26T12:05:26.908Z,3720
2017-08-26T12:06:26.596Z,3905
2017-08-26T12:07:27.212Z,3810
2017-08-26T12:08:26.895Z,3430
2017-08-26T12:09:26.588Z,3925
2017-08-26T12:10:27.204Z,2360
2017-08-26T12:11:27.213Z,1900
2017-08-26T12:12:27.184Z,2275
2017-08-26T12:13:26.878Z,3200
2017-08-26T12:14:27.193Z,3425
2017-08-26T12:15:26.863Z,3175
2017-08-26T12:16:26.852Z,3105
2017-08-26T12:17:26.561Z,3965
2017-08-26T12:18:26.550Z,4090
2017-08-26T12:19:26.536Z,4220
2017-08-26T12:20:26.535Z,3450
2017-08-26T12:21:27.159Z,3805
2017-08-26T12:22:26.550Z,3645
2017-08-26T12:23:27.157Z,3915
2017-08-26T12:24:27.148Z,4275
2017-08-26T12:25:26.845Z,3760
2017-08-26T12:26:27.143Z,2785
2017-08-26T12:27:27.136Z,3740
2017-08-26T12:28:27.152Z,4380
2017-08-26T12:29:27.135Z,3900
2017-08-26T12:30:27.133Z,3345
2017-08-26T12:31:26.820Z,3730
2017-08-26T12:32:27.116Z,3740
2017-08-26T12:33:27.115Z,3610
2017-08-26T12:34:27.117Z,3460
2017-08-26T12:35:27.123Z,3345
2017-08-26T12:36:27.117Z,3035
2017-08-26T12:37:27.125Z,3055
2017-08-26T12:38:26.782Z,3075
2017-08-26T12:39:27.101Z,3530
2017-08-26T12:40:27.095Z,3770
2017-08-26T12:41:27.097Z,2460
2017-08-26T12:42:27.093Z,3335
2017-08-26T12:43:27.085Z,3520
2017-08-26T12:44:27.086Z,2780
2017-08-26T12:45:27.084Z,2150
2017-08-26T12:46:27.084Z,2385
2017-08-26T12:47:27.072Z,3500
2017-08-26T12:48:26.761Z,2960
2017-08-26T12:49:26.444Z,2785
2017-08-26T12:50:27.070Z,2380
2017-08-26T12:51:27.080Z,2735
2017-08-26T12:52:27.056Z,2540
2017-08-26T12:53:27.068Z,2515
2017-08-26T12:54:27.051Z,2220
2017-08-26T12:55:27.038Z,2390
2017-08-26T12:56:27.070Z,1770
2017-08-26T12:57:27.066Z,3490
2017-08-26T12:58:27.031Z,3915
2017-08-26T12:59:26.726Z,3950
2017-08-26T13:00:27.035Z,3690
2017-08-26T13:01:26.716Z,3700
2017-08-26T13:02:27.019Z,3860
2017-08-26T13:03:26.696Z,3535
2017-08-26T13:04:27.018Z,3875
2017-08-26T13:05:25.765Z,3630
2017-08-26T13:06:26.704Z,4020
2017-08-26T13:07:26.675Z,3870
2017-08-26T13:08:27.012Z,3160
2017-08-26T13:09:26.695Z,3735
2017-08-26T13:10:26.990Z,3655
2017-08-26T13:11:26.997Z,3535
2017-08-26T13:12:26.660Z,3030
2017-08-26T13:13:27.003Z,2265
2017-08-26T13:14:26.660Z,3885
2017-08-26T13:15:26.684Z,3530
2017-08-26T13:16:26.977Z,3220
2017-08-26T13:17:26.345Z,3365
2017-08-26T13:18:26.963Z,3810
2017-08-26T13:19:26.653Z,3840
2017-08-26T13:20:26.321Z,3770
2017-08-26T13:21:26.957Z,3640
2017-08-26T13:22:26.954Z,3600
2017-08-26T13:23:26.629Z,3470
2017-08-26T13:24:26.937Z,3300
2017-08-26T13:25:26.957Z,3600
2017-08-26T13:26:26.934Z,2450
2017-08-26T13:27:26.944Z,2630
2017-08-26T13:28:26.924Z,2030
2017-08-26T13:29:26.309Z,2055
2017-08-26T13:30:26.620Z,2455
2017-08-26T13:31:26.920Z,1790
2017-08-26T13:32:26.624Z,2350
2017-08-26T13:33:26.597Z,2280
2017-08-26T13:34:26.601Z,2500
2017-08-26T13:35:26.290Z,2400
2017-08-26T13:36:26.911Z,3780
2017-08-26T13:37:25.970Z,3110
2017-08-26T13:38:26.582Z,3510
2017-08-26T13:39:26.569Z,3530
2017-08-26T13:40:26.584Z,3340
2017-08-26T13:41:26.873Z,3250
2017-08-26T13:42:26.561Z,2775
2017-08-26T13:43:26.881Z,3505
2017-08-26T13:44:26.858Z,3610
2017-08-26T13:45:26.877Z,3275
2017-08-26T13:46:26.879Z,3130
2017-08-26T13:47:26.859Z,3235
2017-08-26T13:48:26.855Z,3190
2017-08-26T13:49:26.850Z,3210